createdAt,value
2019-03-15T00:01:40.297Z,28.20
2019-03-15T00:04:08.938Z,30.33
2019-03-15T00:06:37.540Z,29.37
2019-03-15T00:09:08.098Z,29.43
2019-03-15T00:11:36.765Z,31.03
2019-03-15T00:14:05.789Z,27.27
2019-03-15T00:16:34.421Z,29.27
2019-03-15T00:19:02.968Z,27.47
2019-03-15T00:21:31.603Z,26.23
2019-03-15T00:24:00.120Z,27.20
2019-03-15T00:26:28.758Z,27.50
2019-03-15T00:28:57.325Z,24.53
2019-03-15T00:31:25.817Z,25.93
2019-03-15T00:33:54.445Z,23.90
2019-03-15T00:36:23.080Z,24.10
2019-03-15T00:38:51.648Z,21.83
2019-03-15T00:41:20.202Z,24.70
2019-03-15T00:43:49.679Z,24.23
2019-03-15T00:46:18.519Z,23.73
2019-03-15T00:48:47.130Z,23.27
2019-03-15T00:51:15.715Z,24.60
2019-03-15T00:53:44.294Z,24.30
2019-03-15T00:56:12.857Z,23.13
2019-03-15T00:58:41.434Z,22.17
2019-03-15T01:01:10.231Z,21.77
2019-03-15T01:03:38.737Z,23.47
2019-03-15T01:06:07.377Z,21.33
2019-03-15T01:08:35.944Z,22.00
2019-03-15T01:11:04.651Z,21.20
2019-03-15T01:13:33.263Z,21.23
2019-03-15T01:16:01.932Z,21.80
2019-03-15T01:18:30.418Z,21.50
2019-03-15T01:20:59.026Z,23.33
2019-03-15T01:23:27.558Z,23.90
2019-03-15T01:25:56.120Z,25.20
2019-03-15T01:28:24.690Z,26.20
2019-03-15T01:30:53.786Z,27.70
2019-03-15T01:33:22.547Z,28.23
2019-03-15T01:35:51.173Z,25.33
2019-03-15T01:38:19.769Z,27.63
2019-03-15T01:40:48.978Z,24.83
2019-03-15T01:43:17.651Z,24.27
2019-03-15T01:45:46.287Z,24.13
2019-03-15T01:48:14.825Z,23.43
2019-03-15T01:50:43.379Z,22.40
2019-03-15T01:53:11.981Z,24.03
2019-03-15T01:55:40.590Z,25.20
2019-03-15T01:58:09.163Z,24.70
2019-03-15T02:00:38.610Z,24.63
2019-03-15T02:03:07.389Z,24.50
2019-03-15T02:05:36.079Z,24.73
2019-03-15T02:08:04.707Z,24.93
2019-03-15T02:10:33.267Z,26.87
2019-03-15T02:13:01.866Z,27.67
2019-03-15T02:15:30.545Z,25.97
2019-03-15T02:17:59.024Z,26.23
2019-03-15T02:20:27.600Z,26.60
2019-03-15T02:22:56.262Z,25.87
2019-03-15T02:25:24.791Z,26.27
2019-03-15T02:27:53.283Z,25.47
2019-03-15T02:30:21.925Z,25.37
2019-03-15T02:32:50.489Z,26.20
2019-03-15T02:35:19.937Z,29.67
2019-03-15T02:37:48.811Z,32.77
2019-03-15T02:40:17.426Z,32.10
2019-03-15T02:42:46.020Z,30.00
2019-03-15T02:45:14.668Z,31.23
2019-03-15T02:47:43.220Z,32.63
2019-03-15T02:50:11.844Z,30.73
2019-03-15T02:52:40.375Z,31.73
2019-03-15T02:55:08.951Z,28.57
2019-03-15T02:57:37.613Z,27.23
2019-03-15T03:00:08.350Z,26.80
2019-03-15T03:02:37.017Z,26.00
2019-03-15T03:05:10.343Z,26.83
2019-03-15T03:07:38.972Z,28.23
2019-03-15T03:10:09.125Z,27.80
2019-03-15T03:12:37.624Z,28.23
2019-03-15T03:15:07.549Z,27.43
2019-03-15T03:17:36.233Z,28.83
2019-03-15T03:20:06.564Z,27.77
2019-03-15T03:22:36.068Z,27.37
2019-03-15T03:25:05.911Z,27.20
2019-03-15T03:27:34.481Z,26.90
2019-03-15T03:30:03.270Z,25.87
2019-03-15T03:32:31.858Z,27.37
2019-03-15T03:35:00.696Z,28.50
2019-03-15T03:37:30.057Z,26.07
2019-03-15T03:39:58.663Z,26.23
2019-03-15T03:42:27.263Z,26.17
2019-03-15T03:44:55.833Z,25.40
2019-03-15T03:47:24.474Z,27.03
2019-03-15T03:49:53.556Z,26.50
2019-03-15T03:52:22.333Z,24.77
2019-03-15T03:54:50.978Z,26.17
2019-03-15T03:57:19.543Z,26.80
2019-03-15T03:59:48.175Z,25.50
2019-03-15T04:02:16.786Z,26.63
2019-03-15T04:04:45.414Z,26.70
2019-03-15T04:07:14.039Z,27.27
2019-03-15T04:09:42.575Z,26.37
2019-03-15T04:12:11.129Z,26.43
2019-03-15T04:14:39.770Z,24.67
2019-03-15T04:17:11.174Z,25.33
2019-03-15T04:19:39.749Z,25.50
2019-03-15T04:22:08.382Z,24.17
2019-03-15T04:24:37.051Z,24.90
2019-03-15T04:27:05.768Z,24.43
2019-03-15T04:29:34.335Z,21.33
2019-03-15T04:32:02.828Z,20.63
2019-03-15T04:34:31.426Z,21.13
2019-03-15T04:36:59.983Z,21.17
2019-03-15T04:39:28.669Z,19.07
2019-03-15T04:41:57.230Z,17.67
2019-03-15T04:44:25.789Z,18.53
2019-03-15T04:46:54.332Z,19.97
2019-03-15T04:49:22.899Z,20.20
2019-03-15T04:51:51.525Z,19.70
2019-03-15T04:54:20.053Z,18.63
2019-03-15T04:56:48.615Z,18.13
2019-03-15T04:59:17.173Z,17.87
2019-03-15T05:01:45.712Z,17.00
2019-03-15T05:04:14.275Z,17.17
2019-03-15T05:06:42.785Z,16.53
2019-03-15T05:09:11.258Z,15.53
2019-03-15T05:11:39.834Z,14.87
2019-03-15T05:14:08.521Z,14.73
2019-03-15T05:16:37.014Z,16.00
2019-03-15T05:19:05.610Z,16.30
2019-03-15T05:21:34.172Z,14.97
2019-03-15T05:24:02.781Z,15.23
2019-03-15T05:26:31.341Z,16.50
2019-03-15T05:28:59.936Z,14.67
2019-03-15T05:31:28.538Z,14.17
2019-03-15T05:33:57.093Z,15.53
2019-03-15T05:36:25.701Z,15.70
2019-03-15T05:38:54.268Z,16.20
2019-03-15T05:41:22.835Z,15.27
2019-03-15T05:43:53.136Z,16.10
2019-03-15T05:46:21.822Z,17.30
2019-03-15T05:48:50.374Z,16.90
2019-03-15T05:51:18.902Z,16.27
2019-03-15T05:53:47.466Z,17.73
2019-03-15T05:56:16.358Z,17.43
2019-03-15T05:58:45.195Z,13.57
2019-03-15T06:01:14.057Z,12.23
2019-03-15T06:03:48.408Z,12.17
2019-03-15T06:06:13.207Z,12.73
2019-03-15T06:08:41.889Z,12.47
2019-03-15T06:11:13.384Z,11.67
2019-03-15T06:13:42.110Z,12.83
2019-03-15T06:16:10.743Z,12.77
2019-03-15T06:18:42.219Z,12.40
2019-03-15T06:21:11.008Z,13.80
2019-03-15T06:23:39.857Z,13.97
2019-03-15T06:26:13.493Z,13.70
2019-03-15T06:28:42.210Z,13.97
2019-03-15T06:31:10.864Z,13.93
2019-03-15T06:33:42.504Z,13.47
2019-03-15T06:36:11.318Z,14.90
2019-03-15T06:38:40.062Z,15.93
2019-03-15T06:41:08.753Z,15.87
2019-03-15T06:43:37.472Z,16.43
2019-03-15T06:46:07.180Z,15.97
2019-03-15T06:48:35.956Z,18.03
2019-03-15T06:51:04.656Z,15.90
2019-03-15T06:53:33.401Z,16.63
2019-03-15T06:56:04.875Z,15.07
2019-03-15T06:58:33.573Z,13.87
2019-03-15T07:01:04.338Z,14.53
2019-03-15T07:03:32.754Z,13.60
2019-03-15T07:06:03.417Z,13.63
2019-03-15T07:08:32.087Z,14.50
2019-03-15T07:11:00.884Z,14.33
2019-03-15T07:13:29.628Z,13.93
2019-03-15T07:15:58.450Z,13.00
2019-03-15T07:21:13.796Z,13.00
2019-03-15T07:23:45.771Z,13.40
2019-03-15T07:26:14.627Z,13.53
2019-03-15T07:28:43.263Z,12.17
2019-03-15T07:31:12.054Z,12.83
2019-03-15T07:33:40.754Z,14.60
2019-03-15T07:36:09.483Z,12.83
2019-03-15T07:38:38.196Z,13.00
2019-03-15T07:41:06.913Z,12.50
2019-03-15T07:43:38.573Z,12.90
2019-03-15T07:46:07.266Z,12.17
2019-03-15T07:48:36.069Z,12.40
2019-03-15T07:51:04.813Z,12.13
2019-03-15T07:53:36.643Z,11.80
2019-03-15T07:56:08.498Z,11.87
2019-03-15T07:58:37.072Z,11.33
2019-03-15T08:01:05.709Z,11.30
2019-03-15T08:03:34.992Z,12.17
2019-03-15T08:06:03.710Z,9.93
2019-03-15T08:08:35.455Z,11.20
2019-03-15T08:11:04.036Z,10.90
2019-03-15T08:13:32.592Z,12.70
2019-03-15T08:16:01.239Z,12.20
2019-03-15T08:18:29.729Z,11.70
2019-03-15T08:20:58.379Z,12.07
2019-03-15T08:23:26.976Z,11.10
2019-03-15T08:25:55.731Z,10.77
2019-03-15T08:28:24.471Z,9.87
2019-03-15T08:30:53.201Z,9.70
2019-03-15T08:33:21.836Z,9.20
2019-03-15T08:35:50.548Z,8.70
2019-03-15T08:38:19.264Z,8.83
2019-03-15T08:40:47.845Z,9.67
2019-03-15T08:43:19.611Z,9.90
2019-03-15T08:45:48.308Z,8.90
2019-03-15T08:48:17.028Z,7.93
2019-03-15T08:50:45.784Z,7.10
2019-03-15T08:53:14.528Z,7.50
2019-03-15T08:55:43.253Z,7.33
2019-03-15T08:58:15.766Z,6.57
2019-03-15T09:00:42.615Z,6.92
2019-03-15T09:03:11.302Z,8.17
2019-03-15T09:05:39.951Z,5.90
2019-03-15T09:08:08.743Z,5.90
2019-03-15T09:10:37.419Z,6.60
2019-03-15T09:13:08.979Z,7.37
2019-03-15T09:15:40.658Z,5.90
2019-03-15T09:18:09.361Z,7.23
2019-03-15T09:20:38.083Z,7.73
2019-03-15T09:23:06.812Z,7.40
2019-03-15T09:25:38.319Z,7.07
2019-03-15T09:28:06.981Z,7.23
2019-03-15T09:30:35.683Z,8.77
2019-03-15T09:33:04.454Z,8.73
2019-03-15T09:35:33.243Z,5.77
2019-03-15T09:38:02.015Z,5.73
2019-03-15T09:40:30.853Z,5.60
2019-03-15T09:43:00.038Z,5.23
2019-03-15T09:45:29.079Z,5.90
2019-03-15T09:47:57.835Z,5.93
2019-03-15T09:50:34.202Z,5.63
2019-03-15T09:52:57.032Z,5.70
2019-03-15T09:55:32.893Z,5.40
2019-03-15T09:57:56.193Z,4.67
2019-03-15T10:00:24.845Z,5.20
2019-03-15T10:02:55.968Z,5.17
2019-03-15T10:05:23.746Z,5.23
2019-03-15T10:07:52.412Z,4.57
2019-03-15T10:10:21.035Z,4.60
2019-03-15T10:12:49.658Z,3.80
2019-03-15T10:15:18.403Z,4.17
2019-03-15T10:17:47.178Z,4.13
2019-03-15T10:20:16.175Z,4.45
2019-03-15T10:22:44.790Z,3.83
2019-03-15T10:25:15.406Z,3.75
2019-03-15T10:27:44.048Z,3.63
2019-03-15T10:30:16.805Z,4.00
2019-03-15T10:32:47.132Z,4.35
2019-03-15T10:35:17.409Z,4.08
2019-03-15T10:37:46.200Z,4.30
2019-03-15T10:40:17.249Z,4.00
2019-03-15T10:42:46.673Z,4.92
2019-03-15T10:45:23.797Z,5.28
2019-03-15T10:47:54.422Z,4.95
2019-03-15T10:50:23.226Z,19.05
2019-03-15T10:52:53.754Z,19.63
2019-03-15T10:55:22.596Z,3.37
2019-03-15T10:57:53.942Z,8.08
2019-03-15T11:00:22.700Z,3.17
2019-03-15T11:02:51.582Z,3.47
2019-03-15T11:05:20.283Z,4.40
2019-03-15T11:07:49.083Z,4.03
2019-03-15T11:10:17.922Z,3.80
2019-03-15T11:12:46.727Z,4.37
2019-03-15T11:15:16.240Z,3.97
2019-03-15T11:17:44.900Z,4.80
2019-03-15T11:20:14.056Z,4.00
2019-03-15T11:22:42.699Z,4.70
2019-03-15T11:25:14.457Z,4.43
2019-03-15T11:27:46.159Z,4.30
2019-03-15T11:30:15.188Z,4.03
2019-03-15T11:32:43.952Z,4.80
2019-03-15T11:35:13.477Z,4.50
2019-03-15T11:37:43.879Z,3.97
2019-03-15T11:40:19.097Z,4.30
2019-03-15T11:42:47.433Z,4.87
2019-03-15T11:45:16.306Z,4.17
2019-03-15T11:48:02.579Z,3.80
2019-03-15T11:50:21.905Z,3.80
2019-03-15T11:52:51.018Z,4.33
2019-03-15T11:55:19.903Z,4.97
2019-03-15T11:57:48.962Z,5.73
2019-03-15T12:00:18.807Z,5.67
2019-03-15T12:02:47.628Z,5.00
2019-03-15T12:05:16.715Z,5.47
2019-03-15T12:07:45.634Z,4.30
2019-03-15T12:10:15.149Z,3.63
2019-03-15T12:12:44.281Z,3.33
2019-03-15T12:15:18.142Z,3.77
2019-03-15T12:17:46.858Z,3.60
2019-03-15T12:20:15.544Z,3.90
2019-03-15T12:22:44.307Z,3.20
2019-03-15T12:25:13.929Z,8.53
2019-03-15T12:27:42.803Z,2.87
2019-03-15T12:30:19.147Z,2.37
2019-03-15T12:32:51.064Z,2.20
2019-03-15T12:35:20.006Z,2.77
2019-03-15T12:37:48.561Z,2.53
2019-03-15T12:40:19.074Z,2.70
2019-03-15T12:42:47.972Z,2.77
2019-03-15T12:45:16.679Z,2.70
2019-03-15T12:47:45.372Z,3.30
2019-03-15T12:50:16.282Z,2.63
2019-03-15T12:52:48.239Z,3.02
2019-03-15T12:55:17.483Z,2.05
2019-03-15T12:57:49.366Z,2.85
2019-03-15T13:00:22.623Z,3.45
2019-03-15T13:02:51.306Z,2.90
2019-03-15T13:05:19.933Z,3.17
2019-03-15T13:07:48.598Z,3.20
2019-03-15T13:10:19.670Z,4.70
2019-03-15T13:12:48.300Z,3.90
2019-03-15T13:15:17.377Z,4.20
2019-03-15T13:17:46.152Z,2.73
2019-03-15T13:20:16.750Z,3.80
2019-03-15T13:22:45.453Z,5.30
2019-03-15T13:25:14.499Z,2.80
2019-03-15T13:27:43.439Z,2.70
2019-03-15T13:30:13.538Z,2.12
2019-03-15T13:32:42.219Z,2.70
2019-03-15T13:35:11.485Z,2.83
2019-03-15T13:37:42.903Z,2.42
2019-03-15T13:40:13.657Z,2.02
2019-03-15T13:42:42.384Z,1.77
2019-03-15T13:45:13.146Z,2.27
2019-03-15T13:47:41.807Z,2.20
2019-03-15T13:50:21.618Z,3.90
2019-03-15T13:52:50.262Z,2.45
2019-03-15T13:55:18.984Z,2.30
2019-03-15T13:57:47.786Z,2.20
2019-03-15T14:00:18.218Z,3.50
2019-03-15T14:02:47.011Z,3.02
2019-03-15T14:05:15.638Z,2.40
2019-03-15T14:07:44.379Z,2.75
2019-03-15T14:10:16.582Z,2.50
2019-03-15T14:12:45.249Z,2.58
2019-03-15T14:15:15.297Z,2.52
2019-03-15T14:17:44.290Z,2.95
2019-03-15T14:20:13.682Z,2.20
2019-03-15T14:22:45.057Z,2.33
2019-03-15T14:25:21.672Z,2.77
2019-03-15T14:27:50.344Z,2.70
2019-03-15T14:30:19.011Z,2.60
2019-03-15T14:32:47.678Z,3.22
2019-03-15T14:35:16.348Z,2.33
2019-03-15T14:37:45.007Z,3.65
2019-03-15T14:40:13.702Z,3.00
2019-03-15T14:42:42.521Z,2.67
2019-03-15T14:45:12.651Z,3.20
2019-03-15T14:47:41.412Z,3.47
2019-03-15T14:50:13.778Z,4.80
2019-03-15T14:52:42.382Z,3.30
2019-03-15T14:55:11.913Z,3.70
2019-03-15T14:57:51.350Z,3.12
2019-03-15T15:00:20.514Z,2.62
2019-03-15T15:02:49.178Z,3.30
2019-03-15T15:05:17.820Z,3.15
2019-03-15T15:07:46.466Z,3.25
2019-03-15T15:10:17.125Z,3.42
2019-03-15T15:12:45.862Z,3.43
2019-03-15T15:15:16.404Z,3.47
2019-03-15T15:17:45.084Z,3.77
2019-03-15T15:20:13.731Z,3.50
2019-03-15T15:22:42.336Z,4.10
2019-03-15T15:25:18.596Z,5.00
2019-03-15T15:27:47.197Z,3.83
2019-03-15T15:30:18.033Z,3.10
2019-03-15T15:32:46.655Z,3.60
2019-03-15T15:35:15.540Z,3.17
2019-03-15T15:37:44.168Z,3.50
2019-03-15T15:40:15.094Z,3.30
2019-03-15T15:42:43.582Z,3.50
2019-03-15T15:45:13.116Z,3.37
2019-03-15T15:47:41.804Z,4.47
2019-03-15T15:50:11.723Z,3.80
2019-03-15T15:52:40.266Z,2.73
2019-03-15T15:55:11.168Z,2.90
2019-03-15T15:57:39.709Z,3.70
2019-03-15T16:00:17.335Z,3.00
2019-03-15T16:02:46.017Z,3.63
2019-03-15T16:05:14.869Z,8.63
2019-03-15T16:07:43.495Z,9.53
2019-03-15T16:10:17.671Z,9.27
2019-03-15T16:12:45.936Z,11.83
2019-03-15T16:15:16.576Z,9.70
2019-03-15T16:17:45.987Z,6.50
2019-03-15T16:20:14.856Z,4.77
2019-03-15T16:22:43.408Z,4.97
2019-03-15T16:25:12.549Z,4.57
2019-03-15T16:27:41.170Z,4.20
2019-03-15T16:30:20.332Z,4.40
2019-03-15T16:32:49.005Z,4.37
2019-03-15T16:35:17.636Z,5.10
2019-03-15T16:37:46.267Z,4.20
2019-03-15T16:40:15.788Z,4.17
2019-03-15T16:42:44.465Z,3.70
2019-03-15T16:45:25.111Z,4.77
2019-03-15T16:47:53.710Z,3.63
2019-03-15T16:50:22.326Z,3.57
2019-03-15T16:52:50.931Z,3.70
2019-03-15T16:55:19.489Z,3.00
2019-03-15T16:57:48.115Z,3.60
2019-03-15T17:00:17.146Z,3.73
2019-03-15T17:02:45.914Z,3.80
2019-03-15T17:05:14.906Z,4.30
2019-03-15T17:07:43.532Z,3.33
2019-03-15T17:10:14.351Z,3.30
2019-03-15T17:12:42.970Z,3.43
2019-03-15T17:15:22.935Z,3.40
2019-03-15T17:17:51.605Z,3.40
2019-03-15T17:20:20.334Z,3.17
2019-03-15T17:22:48.859Z,3.10
2019-03-15T17:25:17.490Z,3.50
2019-03-15T17:27:46.105Z,3.60
2019-03-15T17:30:17.916Z,4.47
2019-03-15T17:32:46.688Z,4.87
2019-03-15T17:35:17.233Z,3.77
2019-03-15T17:37:45.915Z,3.17
2019-03-15T17:40:21.218Z,3.43
2019-03-15T17:42:49.763Z,2.80
2019-03-15T17:45:20.652Z,2.83
2019-03-15T17:47:49.194Z,3.50
2019-03-15T17:50:22.337Z,2.90
2019-03-15T17:52:53.869Z,4.53
2019-03-15T17:55:22.564Z,7.33
2019-03-15T17:57:51.177Z,8.90
2019-03-15T18:00:24.139Z,7.57
2019-03-15T18:02:52.765Z,8.20
2019-03-15T18:05:21.398Z,10.00
2019-03-15T18:07:52.546Z,8.57
2019-03-15T18:10:21.177Z,12.87
2019-03-15T18:12:49.825Z,11.60
2019-03-15T18:15:18.463Z,12.83
2019-03-15T18:17:47.149Z,16.77
2019-03-15T18:20:15.768Z,17.50
2019-03-15T18:22:44.400Z,21.77
2019-03-15T18:25:13.191Z,18.97
2019-03-15T18:27:42.062Z,12.73
2019-03-15T18:30:12.930Z,10.60
2019-03-15T18:32:41.565Z,11.00
2019-03-15T18:35:11.191Z,8.47
2019-03-15T18:37:39.862Z,8.57
2019-03-15T18:40:11.220Z,8.70
2019-03-15T18:42:39.902Z,9.43
2019-03-15T18:45:13.743Z,10.73
2019-03-15T18:47:42.382Z,10.37
2019-03-15T18:50:19.915Z,10.90
2019-03-15T18:52:48.547Z,11.87
2019-03-15T18:55:17.216Z,10.33
2019-03-15T18:57:45.851Z,11.00
2019-03-15T19:00:25.428Z,10.93
2019-03-15T19:02:53.996Z,12.33
2019-03-15T19:05:22.603Z,12.20
2019-03-15T19:07:51.337Z,11.47
2019-03-15T19:10:22.034Z,12.30
2019-03-15T19:12:50.683Z,12.27
2019-03-15T19:15:21.397Z,12.90
2019-03-15T19:17:50.022Z,11.67
2019-03-15T19:20:18.702Z,10.27
2019-03-15T19:22:50.294Z,8.77
2019-03-15T19:25:18.973Z,9.50
2019-03-15T19:27:47.543Z,9.97
2019-03-15T19:30:19.741Z,10.00
2019-03-15T19:32:48.433Z,11.03
2019-03-15T19:35:17.054Z,11.93
2019-03-15T19:37:45.677Z,11.10
2019-03-15T19:40:18.962Z,7.07
2019-03-15T19:42:47.631Z,7.17
2019-03-15T19:45:17.015Z,7.63
2019-03-15T19:47:45.660Z,9.70
2019-03-15T19:50:16.333Z,10.27
2019-03-15T19:52:45.003Z,10.47
2019-03-15T19:55:15.392Z,9.00
2019-03-15T19:57:44.064Z,9.13
2019-03-15T20:00:18.017Z,10.07
2019-03-15T20:02:46.631Z,10.13
2019-03-15T20:05:15.292Z,9.07
2019-03-15T20:07:44.109Z,7.90
2019-03-15T20:10:17.320Z,9.63
2019-03-15T20:12:46.153Z,9.70
2019-03-15T20:15:16.070Z,8.40
2019-03-15T20:17:44.800Z,9.13
2019-03-15T20:20:17.329Z,9.03
2019-03-15T20:22:46.100Z,10.50
2019-03-15T20:25:18.661Z,9.93
2019-03-15T20:27:47.342Z,10.57
2019-03-15T20:30:26.237Z,11.10
2019-03-15T20:32:51.800Z,10.17
2019-03-15T20:35:20.468Z,10.93
2019-03-15T20:37:49.097Z,9.97
2019-03-15T20:40:17.761Z,10.00
2019-03-15T20:42:46.404Z,10.33
2019-03-15T20:45:27.730Z,11.00
2019-03-15T20:47:56.360Z,10.13
2019-03-15T20:50:25.039Z,11.87
2019-03-15T20:53:07.205Z,12.83
2019-03-15T20:55:24.097Z,14.83
2019-03-15T20:57:52.694Z,15.17
2019-03-15T21:00:34.868Z,15.30
2019-03-15T21:02:52.805Z,18.97
2019-03-15T21:05:21.428Z,18.77
2019-03-15T21:07:50.091Z,19.87
2019-03-15T21:10:19.120Z,19.07
2019-03-15T21:12:47.807Z,20.50
2019-03-15T21:15:16.860Z,18.67
2019-03-15T21:17:45.508Z,17.87
2019-03-15T21:20:18.696Z,14.67
2019-03-15T21:22:47.608Z,16.00
2019-03-15T21:25:16.242Z,13.97
2019-03-15T21:27:53.702Z,13.00
2019-03-15T21:30:20.352Z,12.47
2019-03-15T21:32:48.895Z,12.93
2019-03-15T21:35:17.516Z,12.20
2019-03-15T21:37:46.152Z,11.63
2019-03-15T21:40:16.867Z,12.20
2019-03-15T21:42:45.433Z,14.63
2019-03-15T21:45:14.309Z,16.93
2019-03-15T21:47:42.861Z,15.33
2019-03-15T21:50:21.149Z,15.47
2019-03-15T21:52:49.806Z,14.90
2019-03-15T21:55:18.496Z,12.97
2019-03-15T21:57:47.128Z,12.63
2019-03-15T22:00:20.443Z,10.37
2019-03-15T22:02:49.002Z,10.27
2019-03-15T22:05:17.680Z,10.40
2019-03-15T22:07:46.272Z,9.43
2019-03-15T22:10:15.597Z,10.37
2019-03-15T22:12:44.220Z,9.97
2019-03-15T22:15:13.758Z,8.67
2019-03-15T22:17:42.487Z,8.73
2019-03-15T22:20:13.210Z,9.10
2019-03-15T22:22:41.875Z,8.20
2019-03-15T22:25:10.494Z,9.40
2019-03-15T22:27:39.249Z,11.47
2019-03-15T22:30:13.757Z,11.33
2019-03-15T22:32:42.362Z,10.30
2019-03-15T22:35:11.086Z,11.23
2019-03-15T22:37:39.709Z,9.70
2019-03-15T22:40:12.907Z,10.50
2019-03-15T22:42:41.555Z,10.93
2019-03-15T22:45:11.471Z,9.63
2019-03-15T22:47:40.097Z,9.30
2019-03-15T22:50:12.545Z,8.67
2019-03-15T22:52:41.168Z,8.87
2019-03-15T22:55:10.837Z,8.97
2019-03-15T22:57:39.558Z,8.10
2019-03-15T23:00:13.681Z,8.90
2019-03-15T23:02:42.231Z,10.10
2019-03-15T23:05:10.891Z,11.07
2019-03-15T23:07:39.487Z,10.60
2019-03-15T23:10:10.312Z,9.57
2019-03-15T23:12:38.982Z,7.97
2019-03-15T23:15:09.674Z,7.17
2019-03-15T23:17:38.259Z,8.40
2019-03-15T23:20:08.581Z,6.57
2019-03-15T23:22:37.174Z,7.17
2019-03-15T23:25:06.805Z,7.57
2019-03-15T23:27:35.368Z,6.43
2019-03-15T23:30:05.291Z,7.20
2019-03-15T23:32:33.839Z,6.97
2019-03-15T23:35:02.423Z,6.77
2019-03-15T23:37:33.757Z,7.37
2019-03-15T23:40:02.246Z,7.40
2019-03-15T23:42:30.811Z,7.57
2019-03-15T23:44:59.341Z,9.27
2019-03-15T23:47:27.961Z,9.67
2019-03-15T23:49:56.635Z,9.33
2019-03-15T23:52:25.233Z,9.20
2019-03-15T23:54:53.876Z,9.17
2019-03-15T23:57:22.429Z,9.67
2019-03-15T23:59:50.990Z,9.97
